sensor_id;sensor_type;location;lat;lon;timestamp;pressure;altitude;pressure_sealevel;temperature;humidity
8061;BME280;4073;42.626;25.386;2023-01-28T00:01:47;96368.78;;;3.09;100.00
8061;BME280;4073;42.626;25.386;2023-01-28T00:04:13;96372.13;;;3.05;100.00
8061;BME280;4073;42.626;25.386;2023-01-28T00:06:39;96375.63;;;3.10;100.00
8061;BME280;4073;42.626;25.386;2023-01-28T00:09:05;96373.47;;;3.07;100.00
8061;BME280;4073;42.626;25.386;2023-01-28T00:11:30;96378.47;;;3.04;100.00
8061;BME280;4073;42.626;25.386;2023-01-28T00:13:56;96384.28;;;3.06;100.00
8061;BME280;4073;42.626;25.386;2023-01-28T00:16:21;96386.69;;;3.07;100.00
8061;BME280;4073;42.626;25.386;2023-01-28T00:18:47;96385.53;;;2.98;100.00
8061;BME280;4073;42.626;25.386;2023-01-28T00:21:14;96389.94;;;2.93;100.00
8061;BME280;4073;42.626;25.386;2023-01-28T00:23:40;96391.03;;;2.97;100.00
8061;BME280;4073;42.626;25.386;2023-01-28T00:26:12;96391.53;;;2.94;100.00
8061;BME280;4073;42.626;25.386;2023-01-28T00:28:38;96386.25;;;2.94;100.00
8061;BME280;4073;42.626;25.386;2023-01-28T00:31:08;96405.03;;;2.97;100.00
8061;BME280;4073;42.626;25.386;2023-01-28T00:33:35;96399.50;;;2.99;100.00
8061;BME280;4073;42.626;25.386;2023-01-28T00:36:02;96403.53;;;3.01;100.00
8061;BME280;4073;42.626;25.386;2023-01-28T00:38:28;96407.50;;;3.04;100.00
8061;BME280;4073;42.626;25.386;2023-01-28T00:40:54;96420.38;;;3.00;100.00
8061;BME280;4073;42.626;25.386;2023-01-28T00:43:20;96413.59;;;3.04;100.00
8061;BME280;4073;42.626;25.386;2023-01-28T00:45:46;96416.78;;;3.06;100.00
8061;BME280;4073;42.626;25.386;2023-01-28T00:48:11;96420.22;;;3.07;100.00
8061;BME280;4073;42.626;25.386;2023-01-28T00:50:37;96420.16;;;3.02;100.00
8061;BME280;4073;42.626;25.386;2023-01-28T00:53:04;96420.63;;;2.99;100.00
8061;BME280;4073;42.626;25.386;2023-01-28T00:55:29;96417.97;;;2.99;100.00
8061;BME280;4073;42.626;25.386;2023-01-28T00:57:55;96419.38;;;3.01;100.00
8061;BME280;4073;42.626;25.386;2023-01-28T01:00:20;96427.91;;;2.92;100.00
8061;BME280;4073;42.626;25.386;2023-01-28T01:02:46;96425.75;;;2.89;100.00
8061;BME280;4073;42.626;25.386;2023-01-28T01:05:11;96435.13;;;2.80;100.00
8061;BME280;4073;42.626;25.386;2023-01-28T01:07:37;96430.63;;;2.80;100.00
8061;BME280;4073;42.626;25.386;2023-01-28T01:10:14;96422.66;;;2.75;100.00
8061;BME280;4073;42.626;25.386;2023-01-28T01:12:40;96426.81;;;2.71;100.00
8061;BME280;4073;42.626;25.386;2023-01-28T01:15:07;96418.81;;;2.83;100.00
8061;BME280;4073;42.626;25.386;2023-01-28T01:17:39;96429.03;;;2.79;100.00
8061;BME280;4073;42.626;25.386;2023-01-28T01:20:07;96427.84;;;2.87;100.00
8061;BME280;4073;42.626;25.386;2023-01-28T01:22:36;96437.13;;;2.89;100.00
8061;BME280;4073;42.626;25.386;2023-01-28T01:25:04;96439.53;;;2.91;100.00
8061;BME280;4073;42.626;25.386;2023-01-28T01:27:31;96428.63;;;2.87;100.00
8061;BME280;4073;42.626;25.386;2023-01-28T01:29:56;96434.91;;;2.81;100.00
8061;BME280;4073;42.626;25.386;2023-01-28T01:32:23;96430.34;;;2.77;100.00
8061;BME280;4073;42.626;25.386;2023-01-28T01:34:48;96428.22;;;2.78;100.00
8061;BME280;4073;42.626;25.386;2023-01-28T01:37:14;96432.16;;;2.76;100.00
8061;BME280;4073;42.626;25.386;2023-01-28T01:39:39;96440.06;;;2.76;100.00
8061;BME280;4073;42.626;25.386;2023-01-28T01:42:05;96436.16;;;2.78;100.00
8061;BME280;4073;42.626;25.386;2023-01-28T01:50:20;96461.13;;;2.71;100.00
8061;BME280;4073;42.626;25.386;2023-01-28T01:52:50;96444.72;;;2.69;100.00
8061;BME280;4073;42.626;25.386;2023-01-28T01:55:20;96455.84;;;2.71;100.00
8061;BME280;4073;42.626;25.386;2023-01-28T01:57:49;96456.56;;;2.66;100.00
8061;BME280;4073;42.626;25.386;2023-01-28T02:00:17;96454.72;;;2.67;100.00
8061;BME280;4073;42.626;25.386;2023-01-28T02:02:45;96458.97;;;2.68;100.00
8061;BME280;4073;42.626;25.386;2023-01-28T02:05:15;96459.09;;;2.61;100.00
8061;BME280;4073;42.626;25.386;2023-01-28T02:07:42;96462.00;;;2.60;100.00
8061;BME280;4073;42.626;25.386;2023-01-28T02:10:10;96459.50;;;2.53;100.00
8061;BME280;4073;42.626;25.386;2023-01-28T02:12:44;96459.03;;;2.56;100.00
8061;BME280;4073;42.626;25.386;2023-01-28T02:15:17;96461.44;;;2.58;100.00
8061;BME280;4073;42.626;25.386;2023-01-28T02:17:44;96461.72;;;2.45;100.00
8061;BME280;4073;42.626;25.386;2023-01-28T02:20:11;96474.28;;;2.54;100.00
8061;BME280;4073;42.626;25.386;2023-01-28T02:30:34;96470.63;;;2.55;100.00
8061;BME280;4073;42.626;25.386;2023-01-28T02:33:15;96478.84;;;2.59;100.00
8061;BME280;4073;42.626;25.386;2023-01-28T02:35:48;96480.47;;;2.60;100.00
8061;BME280;4073;42.626;25.386;2023-01-28T02:38:28;96477.66;;;2.66;100.00
8061;BME280;4073;42.626;25.386;2023-01-28T02:41:10;96475.03;;;2.66;100.00
8061;BME280;4073;42.626;25.386;2023-01-28T02:43:43;96490.28;;;2.64;100.00
8061;BME280;4073;42.626;25.386;2023-01-28T02:48:57;96481.81;;;2.62;100.00
8061;BME280;4073;42.626;25.386;2023-01-28T02:54:17;96484.69;;;2.61;100.00
8061;BME280;4073;42.626;25.386;2023-01-28T02:57:01;96487.09;;;2.62;100.00
8061;BME280;4073;42.626;25.386;2023-01-28T02:59:50;96487.66;;;2.64;100.00
8061;BME280;4073;42.626;25.386;2023-01-28T03:02:36;96477.34;;;2.63;100.00
8061;BME280;4073;42.626;25.386;2023-01-28T03:05:11;96486.22;;;2.57;100.00
8061;BME280;4073;42.626;25.386;2023-01-28T03:07:40;96488.22;;;2.50;100.00
8061;BME280;4073;42.626;25.386;2023-01-28T03:10:08;96495.63;;;2.53;100.00
8061;BME280;4073;42.626;25.386;2023-01-28T03:12:39;96491.50;;;2.57;100.00
8061;BME280;4073;42.626;25.386;2023-01-28T03:15:27;96489.56;;;2.52;100.00
8061;BME280;4073;42.626;25.386;2023-01-28T03:18:17;96480.44;;;2.43;100.00
8061;BME280;4073;42.626;25.386;2023-01-28T03:23:56;96495.09;;;2.51;100.00
8061;BME280;4073;42.626;25.386;2023-01-28T03:26:53;96499.53;;;2.50;100.00
8061;BME280;4073;42.626;25.386;2023-01-28T03:29:39;96492.69;;;2.49;100.00
8061;BME280;4073;42.626;25.386;2023-01-28T03:32:24;96509.38;;;2.38;100.00
8061;BME280;4073;42.626;25.386;2023-01-28T03:35:09;96483.22;;;2.37;100.00
8061;BME280;4073;42.626;25.386;2023-01-28T03:37:57;96485.41;;;2.40;100.00
8061;BME280;4073;42.626;25.386;2023-01-28T03:40:25;96497.19;;;2.37;100.00
8061;BME280;4073;42.626;25.386;2023-01-28T03:42:50;96497.59;;;2.29;100.00
8061;BME280;4073;42.626;25.386;2023-01-28T03:45:18;96485.34;;;2.23;100.00
8061;BME280;4073;42.626;25.386;2023-01-28T03:47:45;96495.53;;;2.31;97.35
8061;BME280;4073;42.626;25.386;2023-01-28T03:50:11;96509.50;;;2.32;97.76
8061;BME280;4073;42.626;25.386;2023-01-28T03:52:36;96498.94;;;2.32;97.13
8061;BME280;4073;42.626;25.386;2023-01-28T03:55:02;96498.41;;;2.30;100.00
8061;BME280;4073;42.626;25.386;2023-01-28T03:57:37;96510.63;;;2.36;98.86
8061;BME280;4073;42.626;25.386;2023-01-28T04:00:03;96505.25;;;2.31;98.68
8061;BME280;4073;42.626;25.386;2023-01-28T04:02:28;96515.56;;;2.32;98.95
8061;BME280;4073;42.626;25.386;2023-01-28T04:04:54;96496.47;;;2.25;99.58
8061;BME280;4073;42.626;25.386;2023-01-28T04:07:19;96507.56;;;2.27;100.00
8061;BME280;4073;42.626;25.386;2023-01-28T04:09:45;96520.75;;;2.27;100.00
8061;BME280;4073;42.626;25.386;2023-01-28T04:12:10;96529.03;;;2.19;100.00
8061;BME280;4073;42.626;25.386;2023-01-28T04:14:36;96522.25;;;2.23;100.00
8061;BME280;4073;42.626;25.386;2023-01-28T04:17:04;96510.91;;;2.23;100.00
8061;BME280;4073;42.626;25.386;2023-01-28T04:19:31;96526.63;;;2.18;100.00
8061;BME280;4073;42.626;25.386;2023-01-28T04:22:03;96539.81;;;2.18;100.00
8061;BME280;4073;42.626;25.386;2023-01-28T04:24:29;96529.19;;;2.13;100.00
8061;BME280;4073;42.626;25.386;2023-01-28T04:26:54;96532.84;;;2.12;100.00
8061;BME280;4073;42.626;25.386;2023-01-28T04:29:19;96534.53;;;2.18;100.00
8061;BME280;4073;42.626;25.386;2023-01-28T04:31:45;96537.41;;;2.16;100.00
8061;BME280;4073;42.626;25.386;2023-01-28T04:34:10;96540.75;;;2.12;100.00
8061;BME280;4073;42.626;25.386;2023-01-28T04:36:36;96539.81;;;2.18;100.00
8061;BME280;4073;42.626;25.386;2023-01-28T04:39:02;96553.94;;;2.12;100.00
8061;BME280;4073;42.626;25.386;2023-01-28T04:41:27;96547.28;;;2.09;100.00
8061;BME280;4073;42.626;25.386;2023-01-28T04:43:53;96549.94;;;2.09;100.00
8061;BME280;4073;42.626;25.386;2023-01-28T04:46:18;96562.78;;;2.06;100.00
8061;BME280;4073;42.626;25.386;2023-01-28T04:48:43;96565.06;;;2.02;100.00
8061;BME280;4073;42.626;25.386;2023-01-28T04:51:09;96571.03;;;1.98;100.00
8061;BME280;4073;42.626;25.386;2023-01-28T04:53:34;96566.13;;;2.01;100.00
8061;BME280;4073;42.626;25.386;2023-01-28T04:56:00;96571.28;;;1.96;100.00
8061;BME280;4073;42.626;25.386;2023-01-28T04:58:25;96557.16;;;2.02;100.00
8061;BME280;4073;42.626;25.386;2023-01-28T05:00:55;96569.22;;;1.98;100.00
8061;BME280;4073;42.626;25.386;2023-01-28T05:03:22;96558.31;;;1.95;100.00
8061;BME280;4073;42.626;25.386;2023-01-28T05:05:47;96564.31;;;1.90;100.00
8061;BME280;4073;42.626;25.386;2023-01-28T05:08:13;96557.19;;;1.91;100.00
8061;BME280;4073;42.626;25.386;2023-01-28T05:10:38;96570.28;;;1.86;100.00
8061;BME280;4073;42.626;25.386;2023-01-28T05:13:04;96570.50;;;1.84;100.00
8061;BME280;4073;42.626;25.386;2023-01-28T05:15:30;96572.56;;;1.82;100.00
8061;BME280;4073;42.626;25.386;2023-01-28T05:17:55;96578.19;;;1.74;100.00
8061;BME280;4073;42.626;25.386;2023-01-28T05:20:21;96578.75;;;1.76;100.00
8061;BME280;4073;42.626;25.386;2023-01-28T05:22:46;96583.00;;;1.77;100.00
8061;BME280;4073;42.626;25.386;2023-01-28T05:25:12;96585.88;;;1.76;100.00
8061;BME280;4073;42.626;25.386;2023-01-28T05:27:37;96595.81;;;1.74;100.00
8061;BME280;4073;42.626;25.386;2023-01-28T05:30:03;96589.28;;;1.76;100.00
8061;BME280;4073;42.626;25.386;2023-01-28T05:32:30;96588.81;;;1.79;100.00
8061;BME280;4073;42.626;25.386;2023-01-28T05:34:56;96595.13;;;1.78;100.00
8061;BME280;4073;42.626;25.386;2023-01-28T05:37:21;96592.16;;;1.75;100.00
8061;BME280;4073;42.626;25.386;2023-01-28T05:39:47;96595.50;;;1.82;100.00
8061;BME280;4073;42.626;25.386;2023-01-28T05:42:12;96599.03;;;1.87;100.00
8061;BME280;4073;42.626;25.386;2023-01-28T05:44:40;96582.66;;;1.74;100.00
8061;BME280;4073;42.626;25.386;2023-01-28T05:47:05;96610.13;;;1.78;100.00
8061;BME280;4073;42.626;25.386;2023-01-28T05:49:31;96611.75;;;1.79;100.00
8061;BME280;4073;42.626;25.386;2023-01-28T05:51:56;96615.84;;;1.86;100.00
8061;BME280;4073;42.626;25.386;2023-01-28T05:54:21;96612.66;;;1.84;100.00
8061;BME280;4073;42.626;25.386;2023-01-28T05:56:47;96608.31;;;1.90;100.00
8061;BME280;4073;42.626;25.386;2023-01-28T05:59:13;96620.22;;;1.92;100.00
8061;BME280;4073;42.626;25.386;2023-01-28T06:01:38;96628.59;;;1.89;100.00
8061;BME280;4073;42.626;25.386;2023-01-28T06:04:04;96621.59;;;1.95;99.22
8061;BME280;4073;42.626;25.386;2023-01-28T06:06:29;96619.31;;;1.98;98.86
8061;BME280;4073;42.626;25.386;2023-01-28T06:08:55;96617.22;;;2.00;100.00
8061;BME280;4073;42.626;25.386;2023-01-28T06:11:21;96627.53;;;2.02;98.51
8061;BME280;4073;42.626;25.386;2023-01-28T06:13:46;96630.97;;;2.02;97.62
8061;BME280;4073;42.626;25.386;2023-01-28T06:16:11;96652.19;;;2.07;98.27
8061;BME280;4073;42.626;25.386;2023-01-28T06:18:37;96652.28;;;2.12;97.22
8061;BME280;4073;42.626;25.386;2023-01-28T06:21:03;96658.84;;;2.21;96.41
8061;BME280;4073;42.626;25.386;2023-01-28T06:23:28;96651.69;;;2.33;95.95
8061;BME280;4073;42.626;25.386;2023-01-28T06:25:55;96663.81;;;2.46;96.29
8061;BME280;4073;42.626;25.386;2023-01-28T06:28:20;96668.59;;;2.60;94.45
8061;BME280;4073;42.626;25.386;2023-01-28T06:30:50;96663.91;;;2.62;93.27
8061;BME280;4073;42.626;25.386;2023-01-28T06:33:16;96674.84;;;2.94;100.00
8061;BME280;4073;42.626;25.386;2023-01-28T06:35:42;96672.28;;;3.44;99.34
8061;BME280;4073;42.626;25.386;2023-01-28T06:38:09;96669.16;;;3.80;95.73
8061;BME280;4073;42.626;25.386;2023-01-28T06:40:34;96652.78;;;3.78;90.55
8061;BME280;4073;42.626;25.386;2023-01-28T06:43:00;96664.38;;;3.60;86.04
8061;BME280;4073;42.626;25.386;2023-01-28T06:45:25;96667.84;;;3.33;87.37
8061;BME280;4073;42.626;25.386;2023-01-28T06:47:51;96672.41;;;3.21;88.08
8061;BME280;4073;42.626;25.386;2023-01-28T06:50:16;96666.00;;;3.17;87.00
8061;BME280;4073;42.626;25.386;2023-01-28T06:52:41;96669.97;;;3.03;88.57
8061;BME280;4073;42.626;25.386;2023-01-28T06:55:07;96668.06;;;3.15;88.14
8061;BME280;4073;42.626;25.386;2023-01-28T06:57:33;96682.31;;;3.14;89.00
8061;BME280;4073;42.626;25.386;2023-01-28T06:59:58;96683.38;;;3.13;88.98
8061;BME280;4073;42.626;25.386;2023-01-28T07:02:24;96689.63;;;3.23;88.04
8061;BME280;4073;42.626;25.386;2023-01-28T07:04:49;96681.06;;;3.33;86.48
8061;BME280;4073;42.626;25.386;2023-01-28T07:07:15;96691.88;;;3.31;85.62
8061;BME280;4073;42.626;25.386;2023-01-28T07:09:40;96690.84;;;3.32;85.49
8061;BME280;4073;42.626;25.386;2023-01-28T07:12:05;96695.19;;;3.38;85.71
8061;BME280;4073;42.626;25.386;2023-01-28T07:14:31;96685.88;;;3.36;85.80
8061;BME280;4073;42.626;25.386;2023-01-28T07:16:57;96681.06;;;3.33;85.45
8061;BME280;4073;42.626;25.386;2023-01-28T07:19:22;96690.97;;;3.26;86.24
8061;BME280;4073;42.626;25.386;2023-01-28T07:21:48;96695.84;;;3.17;85.99
8061;BME280;4073;42.626;25.386;2023-01-28T07:24:13;96712.72;;;3.16;86.66
8061;BME280;4073;42.626;25.386;2023-01-28T07:26:38;96700.88;;;3.19;85.90
8061;BME280;4073;42.626;25.386;2023-01-28T07:29:04;96704.50;;;3.13;86.97
8061;BME280;4073;42.626;25.386;2023-01-28T07:31:29;96706.50;;;3.22;87.70
8061;BME280;4073;42.626;25.386;2023-01-28T07:33:55;96713.19;;;3.41;87.15
8061;BME280;4073;42.626;25.386;2023-01-28T07:36:20;96717.75;;;3.46;85.17
8061;BME280;4073;42.626;25.386;2023-01-28T07:38:46;96706.22;;;3.35;86.30
8061;BME280;4073;42.626;25.386;2023-01-28T07:41:11;96717.50;;;3.31;85.94
8061;BME280;4073;42.626;25.386;2023-01-28T07:43:36;96721.91;;;3.25;85.57
8061;BME280;4073;42.626;25.386;2023-01-28T07:46:02;96714.94;;;3.36;85.98
8061;BME280;4073;42.626;25.386;2023-01-28T07:48:27;96722.16;;;3.40;85.64
8061;BME280;4073;42.626;25.386;2023-01-28T07:50:57;96727.31;;;3.47;85.19
8061;BME280;4073;42.626;25.386;2023-01-28T07:53:23;96725.22;;;3.49;83.29
8061;BME280;4073;42.626;25.386;2023-01-28T07:55:48;96722.69;;;3.54;83.17
8061;BME280;4073;42.626;25.386;2023-01-28T07:58:14;96734.63;;;3.56;83.72
8061;BME280;4073;42.626;25.386;2023-01-28T08:00:39;96728.22;;;3.69;84.17
8061;BME280;4073;42.626;25.386;2023-01-28T08:03:09;96746.19;;;3.83;82.54
8061;BME280;4073;42.626;25.386;2023-01-28T08:05:40;96740.50;;;3.91;82.07
8061;BME280;4073;42.626;25.386;2023-01-28T08:10:52;96739.63;;;4.19;80.50
8061;BME280;4073;42.626;25.386;2023-01-28T08:13:18;96738.53;;;4.36;79.45
8061;BME280;4073;42.626;25.386;2023-01-28T08:15:44;96744.13;;;4.56;78.37
8061;BME280;4073;42.626;25.386;2023-01-28T08:18:11;96744.75;;;4.63;76.91
8061;BME280;4073;42.626;25.386;2023-01-28T08:20:37;96740.19;;;4.97;76.15
8061;BME280;4073;42.626;25.386;2023-01-28T08:23:11;96751.56;;;5.19;74.38
8061;BME280;4073;42.626;25.386;2023-01-28T08:25:37;96748.25;;;5.28;74.05
8061;BME280;4073;42.626;25.386;2023-01-28T08:28:04;96747.44;;;5.55;73.65
8061;BME280;4073;42.626;25.386;2023-01-28T08:30:30;96757.13;;;5.92;71.47
8061;BME280;4073;42.626;25.386;2023-01-28T08:32:57;96755.25;;;6.19;71.15
8061;BME280;4073;42.626;25.386;2023-01-28T08:35:23;96762.81;;;6.37;69.68
8061;BME280;4073;42.626;25.386;2023-01-28T08:37:49;96776.03;;;6.69;68.70
8061;BME280;4073;42.626;25.386;2023-01-28T08:40:14;96775.13;;;6.95;67.57
8061;BME280;4073;42.626;25.386;2023-01-28T08:42:49;96771.72;;;7.09;67.21
8061;BME280;4073;42.626;25.386;2023-01-28T08:45:15;96770.03;;;6.83;68.41
8061;BME280;4073;42.626;25.386;2023-01-28T08:48:11;96792.16;;;6.99;66.62
8061;BME280;4073;42.626;25.386;2023-01-28T08:50:39;96790.72;;;7.33;65.52
8061;BME280;4073;42.626;25.386;2023-01-28T08:53:11;96777.94;;;6.73;66.86
8061;BME280;4073;42.626;25.386;2023-01-28T08:55:36;96792.19;;;6.62;67.63
8061;BME280;4073;42.626;25.386;2023-01-28T08:58:07;96789.44;;;6.89;69.71
8061;BME280;4073;42.626;25.386;2023-01-28T09:00:35;96787.16;;;7.12;66.64
8061;BME280;4073;42.626;25.386;2023-01-28T09:03:01;96776.75;;;7.01;67.35
8061;BME280;4073;42.626;25.386;2023-01-28T09:05:26;96784.81;;;7.21;65.56
8061;BME280;4073;42.626;25.386;2023-01-28T09:07:51;96781.47;;;6.89;67.05
8061;BME280;4073;42.626;25.386;2023-01-28T09:10:17;96786.81;;;7.60;67.29
8061;BME280;4073;42.626;25.386;2023-01-28T09:12:44;96791.22;;;8.42;62.72
8061;BME280;4073;42.626;25.386;2023-01-28T09:15:10;96794.91;;;9.01;61.28
8061;BME280;4073;42.626;25.386;2023-01-28T09:17:36;96793.91;;;10.04;58.51
8061;BME280;4073;42.626;25.386;2023-01-28T09:20:01;96785.91;;;10.42;55.38
8061;BME280;4073;42.626;25.386;2023-01-28T09:22:27;96784.06;;;9.99;55.89
8061;BME280;4073;42.626;25.386;2023-01-28T09:24:52;96773.00;;;9.72;56.25
8061;BME280;4073;42.626;25.386;2023-01-28T09:27:18;96775.47;;;8.90;57.78
8061;BME280;4073;42.626;25.386;2023-01-28T09:29:43;96784.13;;;9.36;58.73
8061;BME280;4073;42.626;25.386;2023-01-28T09:32:09;96771.56;;;9.90;56.48
8061;BME280;4073;42.626;25.386;2023-01-28T09:34:34;96780.41;;;9.90;56.18
8061;BME280;4073;42.626;25.386;2023-01-28T09:37:00;96780.56;;;10.04;55.28
8061;BME280;4073;42.626;25.386;2023-01-28T09:39:25;96786.88;;;10.57;53.23
8061;BME280;4073;42.626;25.386;2023-01-28T09:47:45;96790.19;;;9.51;56.74
8061;BME280;4073;42.626;25.386;2023-01-28T09:50:36;96805.28;;;9.07;58.21
8061;BME280;4073;42.626;25.386;2023-01-28T09:53:21;96805.63;;;8.71;58.90
8061;BME280;4073;42.626;25.386;2023-01-28T09:56:12;96799.44;;;8.05;61.12
8061;BME280;4073;42.626;25.386;2023-01-28T09:58:40;96797.13;;;7.37;61.78
8061;BME280;4073;42.626;25.386;2023-01-28T10:04:04;96794.38;;;6.34;68.23
8061;BME280;4073;42.626;25.386;2023-01-28T10:06:55;96799.06;;;6.22;68.08
8061;BME280;4073;42.626;25.386;2023-01-28T10:10:02;96791.59;;;6.19;69.04
8061;BME280;4073;42.626;25.386;2023-01-28T10:15:53;96797.56;;;6.04;70.51
8061;BME280;4073;42.626;25.386;2023-01-28T10:18:43;96779.97;;;6.25;70.51
8061;BME280;4073;42.626;25.386;2023-01-28T10:21:17;96785.19;;;6.46;70.71
8061;BME280;4073;42.626;25.386;2023-01-28T10:24:04;96782.63;;;6.61;67.77
8061;BME280;4073;42.626;25.386;2023-01-28T10:26:36;96786.16;;;6.72;68.28
8061;BME280;4073;42.626;25.386;2023-01-28T10:29:16;96782.66;;;6.66;67.09
8061;BME280;4073;42.626;25.386;2023-01-28T10:32:06;96780.06;;;6.76;67.31
8061;BME280;4073;42.626;25.386;2023-01-28T10:34:37;96792.94;;;6.94;66.75
8061;BME280;4073;42.626;25.386;2023-01-28T10:37:03;96778.88;;;6.99;67.06
8061;BME280;4073;42.626;25.386;2023-01-28T10:39:29;96777.28;;;7.03;66.67
8061;BME280;4073;42.626;25.386;2023-01-28T10:41:54;96778.63;;;7.05;66.98
8061;BME280;4073;42.626;25.386;2023-01-28T10:44:49;96776.44;;;6.92;67.90
8061;BME280;4073;42.626;25.386;2023-01-28T10:47:22;96780.59;;;6.78;67.06
8061;BME280;4073;42.626;25.386;2023-01-28T10:49:54;96787.94;;;6.61;67.91
8061;BME280;4073;42.626;25.386;2023-01-28T10:52:24;96775.91;;;6.49;66.39
8061;BME280;4073;42.626;25.386;2023-01-28T10:55:00;96778.50;;;6.44;66.65
8061;BME280;4073;42.626;25.386;2023-01-28T10:57:26;96781.47;;;6.47;66.13
8061;BME280;4073;42.626;25.386;2023-01-28T10:59:52;96781.31;;;6.64;65.88
8061;BME280;4073;42.626;25.386;2023-01-28T11:02:35;96778.56;;;6.95;66.13
8061;BME280;4073;42.626;25.386;2023-01-28T11:05:14;96767.84;;;7.27;65.60
8061;BME280;4073;42.626;25.386;2023-01-28T11:07:43;96771.38;;;7.47;64.94
8061;BME280;4073;42.626;25.386;2023-01-28T11:10:29;96772.25;;;7.73;64.51
8061;BME280;4073;42.626;25.386;2023-01-28T11:13:01;96766.69;;;7.99;62.24
8061;BME280;4073;42.626;25.386;2023-01-28T11:15:27;96768.81;;;8.02;60.40
8061;BME280;4073;42.626;25.386;2023-01-28T11:18:02;96780.53;;;7.96;60.60
8061;BME280;4073;42.626;25.386;2023-01-28T11:20:35;96774.91;;;7.88;60.23
8061;BME280;4073;42.626;25.386;2023-01-28T11:23:02;96774.66;;;7.89;59.42
8061;BME280;4073;42.626;25.386;2023-01-28T11:25:35;96778.38;;;7.83;59.30
8061;BME280;4073;42.626;25.386;2023-01-28T11:28:04;96777.81;;;7.76;59.81
8061;BME280;4073;42.626;25.386;2023-01-28T11:30:35;96783.72;;;7.98;61.36
8061;BME280;4073;42.626;25.386;2023-01-28T11:35:40;96774.94;;;8.13;59.30
8061;BME280;4073;42.626;25.386;2023-01-28T11:38:23;96772.56;;;8.07;60.47
8061;BME280;4073;42.626;25.386;2023-01-28T11:40:52;96782.81;;;7.58;60.06
8061;BME280;4073;42.626;25.386;2023-01-28T11:43:22;96775.91;;;7.62;61.46
8061;BME280;4073;42.626;25.386;2023-01-28T11:59:48;96788.56;;;8.62;58.61
8061;BME280;4073;42.626;25.386;2023-01-28T12:02:45;96788.56;;;8.77;57.47
8061;BME280;4073;42.626;25.386;2023-01-28T12:05:18;96789.09;;;8.54;56.96
8061;BME280;4073;42.626;25.386;2023-01-28T12:10:32;96790.94;;;8.73;57.58
8061;BME280;4073;42.626;25.386;2023-01-28T12:16:17;96793.78;;;7.71;61.61
8061;BME280;4073;42.626;25.386;2023-01-28T12:19:11;96788.66;;;7.50;64.80
8061;BME280;4073;42.626;25.386;2023-01-28T12:31:23;96801.38;;;8.50;59.52
8061;BME280;4073;42.626;25.386;2023-01-28T12:38:58;96800.25;;;8.76;61.59
8061;BME280;4073;42.626;25.386;2023-01-28T12:41:34;96789.09;;;8.24;61.64
8061;BME280;4073;42.626;25.386;2023-01-28T12:44:04;96820.31;;;7.56;62.71
8061;BME280;4073;42.626;25.386;2023-01-28T12:49:24;96818.69;;;7.45;65.25
8061;BME280;4073;42.626;25.386;2023-01-28T12:52:02;96823.88;;;7.15;65.96
8061;BME280;4073;42.626;25.386;2023-01-28T12:57:29;96832.28;;;6.97;63.84
8061;BME280;4073;42.626;25.386;2023-01-28T13:03:01;96841.28;;;6.91;65.19
8061;BME280;4073;42.626;25.386;2023-01-28T13:05:36;96844.19;;;6.53;67.20
8061;BME280;4073;42.626;25.386;2023-01-28T13:08:08;96845.59;;;6.34;68.77
8061;BME280;4073;42.626;25.386;2023-01-28T13:10:41;96835.97;;;6.23;70.40
8061;BME280;4073;42.626;25.386;2023-01-28T13:13:19;96848.06;;;6.14;70.40
8061;BME280;4073;42.626;25.386;2023-01-28T13:15:46;96849.16;;;6.18;70.62
8061;BME280;4073;42.626;25.386;2023-01-28T13:18:30;96873.78;;;5.87;71.62
8061;BME280;4073;42.626;25.386;2023-01-28T13:20:56;96861.16;;;5.73;72.19
8061;BME280;4073;42.626;25.386;2023-01-28T13:28:47;96874.28;;;5.41;74.36
8061;BME280;4073;42.626;25.386;2023-01-28T13:31:15;96870.69;;;5.30;74.51
8061;BME280;4073;42.626;25.386;2023-01-28T13:34:02;96880.91;;;5.22;75.87
8061;BME280;4073;42.626;25.386;2023-01-28T13:36:36;96875.63;;;5.22;76.64
8061;BME280;4073;42.626;25.386;2023-01-28T13:39:06;96893.50;;;5.31;75.60
8061;BME280;4073;42.626;25.386;2023-01-28T13:41:49;96900.97;;;5.34;74.25
8061;BME280;4073;42.626;25.386;2023-01-28T13:46:51;96885.72;;;5.25;76.16
8061;BME280;4073;42.626;25.386;2023-01-28T13:49:21;96901.72;;;5.30;74.81
8061;BME280;4073;42.626;25.386;2023-01-28T14:03:39;96908.44;;;4.83;77.38
8061;BME280;4073;42.626;25.386;2023-01-28T14:09:30;96906.50;;;4.78;79.41
8061;BME280;4073;42.626;25.386;2023-01-28T14:15:21;96918.00;;;4.67;79.27
8061;BME280;4073;42.626;25.386;2023-01-28T14:17:56;96911.66;;;4.68;79.34
8061;BME280;4073;42.626;25.386;2023-01-28T14:20:27;96919.41;;;4.75;78.65
8061;BME280;4073;42.626;25.386;2023-01-28T14:23:00;96914.69;;;4.77;79.35
8061;BME280;4073;42.626;25.386;2023-01-28T14:27:58;96910.59;;;4.69;79.75
8061;BME280;4073;42.626;25.386;2023-01-28T14:30:42;96919.81;;;4.67;80.73
8061;BME280;4073;42.626;25.386;2023-01-28T14:33:11;96917.09;;;4.62;81.23
8061;BME280;4073;42.626;25.386;2023-01-28T14:35:39;96928.97;;;4.59;81.32
8061;BME280;4073;42.626;25.386;2023-01-28T14:38:13;96920.38;;;4.52;82.38
8061;BME280;4073;42.626;25.386;2023-01-28T14:40:39;96923.41;;;4.44;82.15
8061;BME280;4073;42.626;25.386;2023-01-28T14:43:11;96928.63;;;4.39;82.70
8061;BME280;4073;42.626;25.386;2023-01-28T14:45:55;96932.13;;;4.28;83.95
8061;BME280;4073;42.626;25.386;2023-01-28T14:59:45;96937.44;;;4.00;86.47
8061;BME280;4073;42.626;25.386;2023-01-28T15:02:20;96954.47;;;3.93;87.36
8061;BME280;4073;42.626;25.386;2023-01-28T15:04:46;96941.25;;;3.93;87.87
8061;BME280;4073;42.626;25.386;2023-01-28T15:07:23;96951.84;;;3.81;87.76
8061;BME280;4073;42.626;25.386;2023-01-28T15:10:10;96947.41;;;3.70;87.25
8061;BME280;4073;42.626;25.386;2023-01-28T15:12:40;96957.31;;;3.52;88.98
8061;BME280;4073;42.626;25.386;2023-01-28T15:15:28;96955.28;;;3.42;90.00
8061;BME280;4073;42.626;25.386;2023-01-28T15:18:01;96963.06;;;3.37;90.95
8061;BME280;4073;42.626;25.386;2023-01-28T15:20:27;96965.16;;;3.35;91.64
8061;BME280;4073;42.626;25.386;2023-01-28T15:22:53;96968.59;;;3.36;90.86
8061;BME280;4073;42.626;25.386;2023-01-28T15:25:21;96964.25;;;3.30;92.19
8061;BME280;4073;42.626;25.386;2023-01-28T15:27:49;96967.44;;;3.32;92.74
8061;BME280;4073;42.626;25.386;2023-01-28T15:30:19;96969.75;;;3.28;93.13
8061;BME280;4073;42.626;25.386;2023-01-28T15:32:45;96971.47;;;3.23;92.81
8061;BME280;4073;42.626;25.386;2023-01-28T15:35:20;96978.81;;;3.21;93.86